Time;durP1;ratioP1;P1;durP2;ratioP2;P2;SDS_P1;SDS_P2;PMS_P1;PMS_P2;Temp;Humidity;BMP_temperature;BMP_pressure;BME280_temperature;BME280_humidity;BME280_pressure;Samples;Min_cycle;Max_cycle;Signal;HPM_P1;HPM_P2
2022/11/08 00:01:37;;;;;;;7.82;3.50;;;10.50;99.90;;;;;;5059017;28;20035;-76
2022/11/08 00:04:11;;;;;;;6.95;3.25;;;10.50;99.90;;;;;;5066954;28;20385;-76
2022/11/08 00:14:52;;;;;;;5.93;2.85;;;10.30;99.90;;;;;;5059370;28;20393;-76
2022/11/08 00:17:19;;;;;;;6.38;2.65;;;10.20;99.90;;;;;;5070309;28;20025;-76
2022/11/08 00:19:45;;;;;;;6.90;2.45;;;10.20;99.90;;;;;;5056701;28;20440;-76
2022/11/08 00:22:11;;;;;;;8.55;3.15;;;10.20;99.90;;;;;;5066689;28;20173;-75
2022/11/08 00:24:37;;;;;;;9.27;3.20;;;10.10;99.90;;;;;;5056725;28;20024;-76
2022/11/08 00:27:05;;;;;;;4.70;2.80;;;10.10;99.90;;;;;;5062687;28;20480;-76
2022/11/08 00:29:32;;;;;;;9.85;2.97;;;10.10;99.90;;;;;;5051015;28;20115;-76
2022/11/08 00:31:57;;;;;;;5.47;2.78;;;10.00;99.90;;;;;;5066579;28;20453;-76
2022/11/08 00:34:23;;;;;;;3.58;2.65;;;9.90;99.90;;;;;;5054821;28;20107;-76
2022/11/08 00:36:52;;;;;;;5.40;2.90;;;9.90;99.90;;;;;;5065336;28;20029;-76
2022/11/08 00:39:18;;;;;;;4.20;2.58;;;9.90;99.90;;;;;;5060034;28;20036;-75
2022/11/08 00:41:43;;;;;;;4.93;2.75;;;9.90;99.90;;;;;;5056199;28;20029;-76
2022/11/08 00:44:09;;;;;;;5.80;2.75;;;9.90;99.90;;;;;;5051890;28;20021;-74
2022/11/08 00:46:36;;;;;;;6.03;2.30;;;9.80;99.90;;;;;;5070253;28;20021;-76
2022/11/08 00:49:02;;;;;;;4.15;2.53;;;9.70;99.90;;;;;;5071233;28;20052;-78
2022/11/08 00:51:28;;;;;;;6.88;2.47;;;9.70;99.90;;;;;;5071283;28;20040;-77
2022/11/08 00:53:53;;;;;;;7.43;2.60;;;9.70;99.90;;;;;;5071877;28;20025;-76
2022/11/08 00:56:19;;;;;;;5.82;2.50;;;9.70;99.90;;;;;;5053417;28;20386;-76
2022/11/08 00:58:45;;;;;;;5.38;2.40;;;9.70;99.90;;;;;;5070519;28;20037;-78
2022/11/08 01:01:13;;;;;;;5.30;2.55;;;9.60;99.90;;;;;;5059635;28;20100;-78
2022/11/08 01:03:38;;;;;;;4.70;2.75;;;9.60;99.90;;;;;;5051792;28;20029;-77
2022/11/08 01:06:06;;;;;;;5.60;2.55;;;9.50;99.90;;;;;;5048881;28;20029;-77
2022/11/08 01:08:31;;;;;;;5.63;2.50;;;9.60;99.90;;;;;;5046166;28;20346;-79
2022/11/08 01:11:01;;;;;;;5.43;2.47;;;9.50;99.90;;;;;;5059392;28;20080;-79
2022/11/08 01:13:27;;;;;;;4.32;2.53;;;9.50;99.90;;;;;;5067590;28;20466;-78
2022/11/08 01:15:52;;;;;;;6.43;2.10;;;9.50;99.90;;;;;;5055007;28;20021;-77
2022/11/08 01:18:18;;;;;;;9.07;2.42;;;9.50;99.90;;;;;;5070472;28;20078;-77
2022/11/08 01:20:46;;;;;;;4.40;2.20;;;9.50;99.90;;;;;;5054744;28;20025;-78
2022/11/08 01:23:12;;;;;;;6.15;2.72;;;9.50;99.90;;;;;;5055187;28;20029;-74
2022/11/08 01:25:40;;;;;;;4.15;2.35;;;9.40;99.90;;;;;;5054921;28;20084;-79
2022/11/08 01:28:06;;;;;;;4.47;2.08;;;9.40;99.90;;;;;;5055823;28;20032;-79
2022/11/08 01:30:40;;;;;;;3.38;2.17;;;9.40;99.90;;;;;;5070228;28;20028;-79
2022/11/08 01:33:07;;;;;;;3.65;2.13;;;9.40;99.90;;;;;;5049600;28;20374;-76
2022/11/08 01:35:34;;;;;;;4.80;2.20;;;9.40;99.90;;;;;;5057830;28;20029;-79
2022/11/08 01:38:01;;;;;;;2.80;2.22;;;9.40;99.90;;;;;;5074704;28;20024;-78
2022/11/08 01:40:27;;;;;;;4.70;2.15;;;9.30;99.90;;;;;;5074943;28;20035;-80
2022/11/08 01:42:53;;;;;;;4.55;2.05;;;9.30;99.90;;;;;;5074902;28;20028;-80
2022/11/08 01:45:56;;;;;;;6.13;2.40;;;9.30;99.90;;;;;;5075146;28;20093;-80
2022/11/08 01:48:23;;;;;;;4.00;1.75;;;9.20;99.90;;;;;;5073631;28;20032;-79
2022/11/08 01:50:50;;;;;;;8.43;2.10;;;9.10;99.90;;;;;;5075029;28;20052;-80
2022/11/08 01:53:16;;;;;;;6.65;2.33;;;9.10;99.90;;;;;;5074985;28;20035;-80
2022/11/08 01:55:42;;;;;;;5.53;2.70;;;9.00;99.90;;;;;;5074759;28;20035;-80
2022/11/08 01:58:16;;;;;;;4.28;2.38;;;9.00;99.90;;;;;;5074582;28;20032;-79
2022/11/08 02:00:42;;;;;;;5.07;2.20;;;9.00;99.90;;;;;;5074387;28;20413;-79
2022/11/08 02:03:11;;;;;;;5.35;2.35;;;9.00;99.90;;;;;;5074485;28;20050;-78
2022/11/08 02:05:37;;;;;;;3.58;2.33;;;9.00;99.90;;;;;;5075042;28;20025;-78
2022/11/08 02:08:21;;;;;;;4.35;2.28;;;9.00;99.90;;;;;;5075045;28;20087;-78
2022/11/08 02:10:50;;;;;;;6.97;2.75;;;9.00;99.90;;;;;;5075327;28;20074;-78
2022/11/08 02:13:24;;;;;;;4.68;2.28;;;9.00;99.90;;;;;;5073297;28;20580;-78
2022/11/08 02:15:50;;;;;;;5.53;2.35;;;9.00;99.90;;;;;;5075099;28;20025;-78
2022/11/08 02:18:18;;;;;;;4.90;2.15;;;8.90;99.90;;;;;;5073030;28;20028;-77
2022/11/08 02:21:20;;;;;;;7.18;2.30;;;8.90;99.90;;;;;;5074057;28;20450;-78
2022/11/08 02:23:54;;;;;;;4.72;2.08;;;8.90;99.90;;;;;;5070959;28;20051;-78
2022/11/08 02:26:27;;;;;;;8.52;2.25;;;8.90;99.90;;;;;;5074490;28;20500;-78
2022/11/08 02:28:52;;;;;;;3.97;2.28;;;8.90;99.90;;;;;;5074819;28;20071;-78
2022/11/08 02:31:19;;;;;;;3.78;2.42;;;8.90;99.90;;;;;;5072971;28;20068;-77
2022/11/08 02:33:45;;;;;;;3.95;2.28;;;8.90;99.90;;;;;;5074739;28;20031;-79
2022/11/08 02:36:23;;;;;;;8.75;2.30;;;8.70;99.90;;;;;;5074877;28;20020;-79
2022/11/08 02:38:54;;;;;;;4.20;2.17;;;8.70;99.90;;;;;;5073838;28;20066;-79
2022/11/08 02:41:19;;;;;;;6.35;2.33;;;8.80;99.90;;;;;;5074134;28;20108;-79
2022/11/08 02:43:45;;;;;;;3.60;2.10;;;8.80;99.90;;;;;;5074601;28;20052;-79
2022/11/08 02:46:11;;;;;;;4.30;2.50;;;8.80;99.90;;;;;;5073272;28;20032;-79
2022/11/08 02:48:36;;;;;;;4.78;2.22;;;8.80;99.90;;;;;;5072944;28;20083;-79
2022/11/08 02:51:02;;;;;;;5.30;2.47;;;8.80;99.90;;;;;;5074458;28;20067;-79
2022/11/08 02:53:28;;;;;;;3.88;2.08;;;8.80;99.90;;;;;;5073684;28;20059;-79
2022/11/08 02:55:54;;;;;;;8.90;2.72;;;8.70;99.90;;;;;;5074387;28;20064;-79
2022/11/08 02:58:19;;;;;;;3.58;2.10;;;8.70;99.90;;;;;;5072731;28;20028;-79
2022/11/08 03:00:45;;;;;;;4.93;2.20;;;8.70;99.90;;;;;;5073316;28;20025;-79
2022/11/08 03:03:11;;;;;;;4.72;1.92;;;8.70;99.90;;;;;;5073321;28;20067;-79
2022/11/08 03:05:36;;;;;;;4.47;2.13;;;8.70;99.90;;;;;;5073368;28;20214;-79
2022/11/08 03:08:02;;;;;;;7.60;2.63;;;8.80;99.90;;;;;;5073961;28;20045;-79
2022/11/08 03:10:28;;;;;;;5.38;2.20;;;8.70;99.90;;;;;;5072438;28;20578;-79
2022/11/08 03:12:59;;;;;;;4.22;2.47;;;8.70;99.90;;;;;;5074226;28;20032;-79
2022/11/08 03:15:25;;;;;;;5.13;2.13;;;8.70;99.90;;;;;;5073290;28;20067;-79
2022/11/08 03:17:51;;;;;;;4.75;2.20;;;8.70;99.90;;;;;;5074055;28;20252;-79
2022/11/08 03:20:17;;;;;;;4.53;2.20;;;8.60;99.90;;;;;;5073176;28;20032;-75
2022/11/08 03:22:43;;;;;;;4.57;2.15;;;8.50;99.90;;;;;;5073907;28;20039;-79
2022/11/08 03:25:09;;;;;;;5.93;2.17;;;8.40;99.90;;;;;;5072742;28;20051;-79
2022/11/08 03:27:34;;;;;;;3.65;1.85;;;8.40;99.90;;;;;;5072009;28;20820;-78
2022/11/08 03:30:00;;;;;;;4.03;2.05;;;8.20;99.90;;;;;;5072274;28;20158;-79
2022/11/08 03:32:25;;;;;;;3.40;1.90;;;8.20;99.90;;;;;;5072824;28;20021;-79
2022/11/08 03:34:51;;;;;;;2.85;1.80;;;8.20;99.90;;;;;;5072666;28;20056;-79
2022/11/08 03:37:17;;;;;;;3.03;2.00;;;8.20;99.90;;;;;;5072414;28;20527;-76
2022/11/08 03:39:42;;;;;;;5.80;2.10;;;8.20;99.90;;;;;;5071641;28;20082;-79
2022/11/08 03:42:08;;;;;;;3.58;1.90;;;8.20;99.90;;;;;;5073593;28;20039;-79
2022/11/08 03:44:34;;;;;;;4.18;2.30;;;8.00;99.90;;;;;;5072959;28;20454;-79
2022/11/08 03:47:00;;;;;;;3.60;2.10;;;8.00;99.90;;;;;;5072762;28;20020;-79
2022/11/08 03:49:26;;;;;;;2.40;2.03;;;8.00;99.90;;;;;;5071431;28;20489;-78
2022/11/08 03:51:53;;;;;;;3.13;1.98;;;7.90;99.90;;;;;;5072241;28;20028;-79
2022/11/08 03:54:18;;;;;;;5.45;2.10;;;7.90;99.90;;;;;;5072162;28;20028;-75
2022/11/08 03:56:44;;;;;;;6.80;2.13;;;7.90;99.90;;;;;;5073669;28;20028;-79
2022/11/08 03:59:10;;;;;;;7.30;2.15;;;7.90;99.90;;;;;;5071993;28;20035;-79
2022/11/08 04:01:36;;;;;;;6.60;2.47;;;7.90;99.90;;;;;;5072678;28;20027;-79
2022/11/08 04:04:02;;;;;;;5.43;2.20;;;8.00;99.90;;;;;;5073787;28;20021;-79
2022/11/08 04:06:27;;;;;;;4.13;2.30;;;8.00;99.90;;;;;;5072788;28;20025;-79
2022/11/08 04:08:53;;;;;;;2.92;2.40;;;8.00;99.90;;;;;;5072003;28;20060;-79
2022/11/08 04:16:46;;;;;;;6.13;2.40;;;8.10;99.90;;;;;;5073612;28;20119;-80
2022/11/08 04:21:56;;;;;;;4.95;1.88;;;8.00;99.90;;;;;;5073084;28;20041;-79
2022/11/08 04:24:22;;;;;;;3.72;2.05;;;8.00;99.90;;;;;;5072529;28;20024;-79
2022/11/08 04:26:48;;;;;;;3.90;1.92;;;8.00;99.90;;;;;;5073168;28;20446;-79
2022/11/08 04:29:14;;;;;;;3.92;2.05;;;8.00;99.90;;;;;;5072171;28;20386;-79
2022/11/08 04:31:40;;;;;;;3.70;2.13;;;7.90;99.90;;;;;;5072558;28;20033;-80
2022/11/08 04:34:06;;;;;;;4.90;2.10;;;7.90;99.90;;;;;;5072235;28;20035;-79
2022/11/08 04:36:34;;;;;;;3.60;1.80;;;7.80;99.90;;;;;;5072380;28;20029;-79
2022/11/08 04:39:00;;;;;;;5.15;1.90;;;7.80;99.90;;;;;;5072251;28;20394;-79
2022/11/08 04:41:26;;;;;;;7.10;2.05;;;7.70;99.90;;;;;;5071133;28;20020;-78
2022/11/08 04:43:54;;;;;;;5.63;2.13;;;7.80;99.90;;;;;;5071616;28;20024;-78
2022/11/08 04:46:22;;;;;;;3.45;1.95;;;7.80;99.90;;;;;;5072455;28;20025;-78
2022/11/08 04:48:54;;;;;;;5.25;1.58;;;7.70;99.90;;;;;;5071707;28;20052;-79
2022/11/08 04:51:27;;;;;;;3.83;1.95;;;7.70;99.90;;;;;;5073755;28;20078;-76
2022/11/08 04:53:55;;;;;;;4.40;2.05;;;7.70;99.90;;;;;;5076146;28;20027;-80
2022/11/08 04:56:21;;;;;;;5.03;1.80;;;7.70;99.90;;;;;;5076400;28;20025;-75
2022/11/08 04:58:52;;;;;;;5.13;2.10;;;7.70;99.90;;;;;;5075463;28;20381;-78
2022/11/08 05:01:20;;;;;;;3.03;1.70;;;7.70;99.90;;;;;;5076582;28;20424;-78
2022/11/08 05:03:47;;;;;;;5.10;1.88;;;7.70;99.90;;;;;;5074788;28;20028;-77
2022/11/08 05:06:24;;;;;;;3.13;1.65;;;7.70;99.90;;;;;;5062137;28;20404;-77
2022/11/08 05:08:50;;;;;;;4.82;1.80;;;7.70;99.90;;;;;;5055658;28;20067;-76
2022/11/08 05:11:18;;;;;;;3.80;1.63;;;7.60;99.90;;;;;;5070880;28;20460;-77
2022/11/08 05:13:44;;;;;;;6.43;1.95;;;7.60;99.90;;;;;;5058795;28;20038;-79
2022/11/08 05:16:16;;;;;;;5.53;1.80;;;7.60;99.90;;;;;;5068422;28;20025;-76
2022/11/08 05:18:41;;;;;;;3.65;1.73;;;7.60;99.90;;;;;;5063466;28;20029;-75
2022/11/08 05:23:54;;;;;;;3.67;1.75;;;7.40;99.90;;;;;;5059214;28;20027;-77
2022/11/08 05:26:20;;;;;;;3.85;1.60;;;7.40;99.90;;;;;;5068046;28;20021;-78
2022/11/08 05:28:46;;;;;;;3.08;1.92;;;7.40;99.90;;;;;;5065361;28;20043;-78
2022/11/08 05:31:12;;;;;;;2.67;1.42;;;7.40;99.90;;;;;;5074858;28;20024;-78
2022/11/08 05:33:38;;;;;;;5.80;2.33;;;7.50;99.90;;;;;;5074203;28;20067;-79
2022/11/08 05:36:12;;;;;;;3.45;2.10;;;7.50;99.90;;;;;;5069008;28;20044;-79
2022/11/08 05:38:38;;;;;;;4.20;1.60;;;7.50;99.90;;;;;;5075249;28;20029;-79
2022/11/08 05:41:15;;;;;;;4.32;1.80;;;7.40;99.90;;;;;;5074571;28;20529;-79
2022/11/08 05:43:41;;;;;;;5.18;1.50;;;7.50;99.90;;;;;;5073031;28;20021;-78
2022/11/08 05:46:07;;;;;;;6.40;1.88;;;7.50;99.90;;;;;;5060852;28;20028;-79
2022/11/08 05:48:33;;;;;;;2.95;1.58;;;7.40;99.90;;;;;;5060838;28;20482;-78
2022/11/08 05:50:59;;;;;;;4.32;1.60;;;7.40;99.90;;;;;;5068165;28;20020;-79
2022/11/08 05:53:24;;;;;;;1.92;1.30;;;7.40;99.90;;;;;;5058811;28;20474;-77
2022/11/08 05:55:59;;;;;;;3.17;1.48;;;7.50;99.90;;;;;;5074417;28;20032;-79
2022/11/08 05:58:25;;;;;;;2.65;1.52;;;7.50;99.90;;;;;;5066240;28;20148;-77
2022/11/08 06:01:08;;;;;;;2.65;1.40;;;7.50;99.90;;;;;;5066533;28;20055;-79
2022/11/08 06:03:35;;;;;;;5.28;1.60;;;7.50;99.90;;;;;;5056869;28;20047;-80
2022/11/08 06:06:14;;;;;;;4.00;1.67;;;7.50;99.90;;;;;;5075163;28;20409;-79
2022/11/08 06:08:41;;;;;;;4.78;1.63;;;7.50;99.90;;;;;;5062771;28;20394;-80
2022/11/08 06:11:15;;;;;;;7.20;2.00;;;7.60;99.90;;;;;;5069201;28;20055;-80
2022/11/08 06:13:41;;;;;;;4.68;1.60;;;7.60;99.90;;;;;;5057408;28;20389;-79
2022/11/08 06:16:10;;;;;;;6.30;1.85;;;7.50;99.90;;;;;;5069023;28;20059;-80
2022/11/08 06:18:37;;;;;;;2.90;1.67;;;7.50;99.90;;;;;;5064010;28;20105;-80
2022/11/08 06:21:04;;;;;;;2.72;1.58;;;7.50;99.90;;;;;;5074132;28;20032;-82
2022/11/08 06:23:30;;;;;;;2.72;1.30;;;7.50;99.90;;;;;;5056635;28;20108;-81
2022/11/08 06:25:57;;;;;;;5.75;1.60;;;7.50;99.90;;;;;;5054752;28;20107;-81
2022/11/08 06:28:22;;;;;;;3.13;1.70;;;7.40;99.90;;;;;;5062849;28;20115;-81
2022/11/08 06:30:48;;;;;;;4.43;1.70;;;7.50;99.90;;;;;;5062289;28;20575;-82
2022/11/08 06:33:14;;;;;;;5.20;2.10;;;7.40;99.90;;;;;;5068702;28;20480;-81
2022/11/08 06:35:39;;;;;;;4.72;2.53;;;7.40;99.90;;;;;;5064769;28;20051;-79
2022/11/08 06:38:06;;;;;;;4.25;2.22;;;7.40;99.90;;;;;;5068699;28;20413;-79
2022/11/08 06:40:32;;;;;;;3.30;1.67;;;7.50;99.90;;;;;;5053715;28;20564;-79
2022/11/08 06:42:58;;;;;;;5.50;2.30;;;7.60;99.90;;;;;;5065988;28;20025;-78
2022/11/08 06:45:24;;;;;;;7.57;1.92;;;7.60;99.90;;;;;;5057229;28;20025;-78
2022/11/08 06:47:57;;;;;;;3.42;2.08;;;7.70;99.90;;;;;;5068304;28;20032;-78
2022/11/08 06:50:23;;;;;;;5.40;2.15;;;7.60;99.90;;;;;;5061017;28;20034;-78
2022/11/08 06:52:55;;;;;;;5.72;2.47;;;7.70;99.90;;;;;;5061287;28;20639;-79
2022/11/08 06:55:21;;;;;;;5.10;2.00;;;7.70;99.90;;;;;;5056536;28;20029;-78
2022/11/08 06:57:46;;;;;;;9.07;2.00;;;7.70;99.90;;;;;;5069754;28;20175;-79
2022/11/08 07:00:14;;;;;;;6.78;2.80;;;7.80;99.90;;;;;;5059375;28;20020;-79
2022/11/08 07:02:39;;;;;;;5.70;2.22;;;7.80;99.90;;;;;;5073402;28;20028;-78
2022/11/08 07:05:05;;;;;;;4.15;2.50;;;7.80;99.90;;;;;;5065423;28;20051;-80
2022/11/08 07:07:31;;;;;;;4.10;2.10;;;7.80;99.90;;;;;;5073062;28;20517;-76
2022/11/08 07:09:56;;;;;;;3.25;1.75;;;7.80;99.90;;;;;;5068119;28;20391;-80
2022/11/08 07:12:22;;;;;;;5.78;1.95;;;7.90;99.90;;;;;;5060920;28;20046;-80
2022/11/08 07:14:47;;;;;;;2.88;1.90;;;7.90;99.90;;;;;;5060019;28;20052;-80
2022/11/08 07:17:14;;;;;;;3.78;1.88;;;8.00;99.90;;;;;;5067860;28;20024;-80
2022/11/08 07:19:40;;;;;;;3.22;1.70;;;7.90;99.90;;;;;;5055113;28;20059;-81
2022/11/08 07:22:06;;;;;;;3.83;1.80;;;8.00;99.90;;;;;;5067362;28;20052;-77
2022/11/08 07:24:31;;;;;;;5.68;1.67;;;8.10;99.90;;;;;;5061738;28;20032;-76
2022/11/08 07:26:57;;;;;;;4.05;1.80;;;8.10;99.90;;;;;;5073008;28;20105;-77
2022/11/08 07:29:22;;;;;;;4.80;2.00;;;8.10;99.90;;;;;;5055362;28;20025;-77
2022/11/08 07:31:48;;;;;;;4.60;2.22;;;8.10;99.90;;;;;;5055467;28;20780;-75
2022/11/08 07:34:14;;;;;;;3.53;1.67;;;8.20;99.90;;;;;;5065845;28;20025;-75
2022/11/08 07:36:39;;;;;;;7.63;2.20;;;8.20;99.90;;;;;;5050599;28;20032;-76
2022/11/08 07:39:05;;;;;;;5.45;1.92;;;8.20;99.90;;;;;;5065680;28;20101;-76
2022/11/08 07:41:30;;;;;;;4.15;2.08;;;8.30;99.90;;;;;;5054408;28;20485;-76
2022/11/08 07:43:56;;;;;;;3.42;1.65;;;8.30;99.90;;;;;;5067063;28;20024;-77
2022/11/08 07:46:21;;;;;;;4.05;1.98;;;8.30;99.90;;;;;;5051431;28;20040;-77
2022/11/08 07:48:47;;;;;;;2.90;1.90;;;8.40;99.90;;;;;;5063003;28;20493;-77
2022/11/08 07:51:12;;;;;;;3.13;1.67;;;8.40;99.90;;;;;;5072619;28;20027;-76
2022/11/08 07:53:38;;;;;;;4.68;1.70;;;8.50;99.90;;;;;;5053856;28;20468;-76
2022/11/08 07:56:04;;;;;;;3.00;1.80;;;8.50;99.90;;;;;;5066861;28;20025;-77
2022/11/08 07:58:29;;;;;;;6.18;1.98;;;8.60;99.90;;;;;;5061191;28;20028;-77
2022/11/08 08:01:01;;;;;;;5.45;2.10;;;8.60;99.90;;;;;;5058135;28;20371;-76
2022/11/08 08:03:26;;;;;;;4.38;1.90;;;8.50;99.90;;;;;;5067892;28;20025;-78
2022/11/08 08:05:54;;;;;;;6.00;2.28;;;8.60;99.90;;;;;;5051653;28;20450;-77
2022/11/08 08:08:20;;;;;;;6.35;2.00;;;8.60;99.90;;;;;;5059062;28;20052;-77
2022/11/08 08:10:46;;;;;;;3.83;2.10;;;8.60;99.90;;;;;;5059425;28;20078;-77
2022/11/08 08:13:12;;;;;;;2.65;1.65;;;8.60;99.90;;;;;;5066095;28;20075;-76
2022/11/08 08:15:38;;;;;;;7.22;2.10;;;8.70;99.90;;;;;;5053960;28;20051;-77
2022/11/08 08:18:05;;;;;;;2.60;1.83;;;8.80;99.90;;;;;;5065339;28;20463;-77
2022/11/08 08:20:32;;;;;;;3.92;2.38;;;8.80;99.90;;;;;;5061354;28;20051;-77
2022/11/08 08:22:58;;;;;;;3.25;2.35;;;8.90;99.90;;;;;;5058226;28;20036;-77
2022/11/08 08:25:24;;;;;;;8.05;3.20;;;8.90;99.90;;;;;;5071379;28;20021;-77
2022/11/08 08:27:53;;;;;;;6.75;2.70;;;8.90;99.90;;;;;;5043433;28;20025;-77
2022/11/08 08:30:19;;;;;;;4.85;2.60;;;8.90;99.90;;;;;;5068969;28;20033;-77
2022/11/08 08:32:45;;;;;;;8.15;2.42;;;9.00;99.90;;;;;;5065921;28;20091;-78
2022/11/08 08:35:11;;;;;;;4.55;2.33;;;8.90;99.90;;;;;;5066723;28;20020;-77
2022/11/08 08:37:37;;;;;;;7.25;2.80;;;8.90;99.90;;;;;;5072484;28;20487;-77
2022/11/08 08:40:03;;;;;;;7.47;2.70;;;9.00;99.90;;;;;;5061491;28;20074;-77
2022/11/08 08:42:29;;;;;;;6.45;2.83;;;9.00;99.90;;;;;;5065269;28;20385;-77
2022/11/08 08:44:54;;;;;;;8.27;3.40;;;9.10;99.90;;;;;;5068613;28;20052;-77
2022/11/08 08:47:20;;;;;;;6.82;3.50;;;9.20;99.90;;;;;;5058988;28;20163;-77
2022/11/08 08:49:45;;;;;;;5.75;3.10;;;9.30;99.90;;;;;;5072141;28;20041;-77
2022/11/08 08:52:11;;;;;;;8.60;3.30;;;9.40;99.90;;;;;;5061262;28;20020;-77
2022/11/08 08:54:36;;;;;;;8.65;2.92;;;9.60;99.90;;;;;;5065078;28;20078;-76
2022/11/08 08:57:02;;;;;;;10.20;3.33;;;9.60;99.90;;;;;;5069262;28;20021;-75
2022/11/08 08:59:28;;;;;;;6.43;3.60;;;9.70;99.90;;;;;;5058405;28;20032;-77
2022/11/08 09:01:54;;;;;;;8.43;3.10;;;9.70;99.90;;;;;;5070643;28;20013;-77
2022/11/08 09:04:20;;;;;;;9.52;3.17;;;9.80;99.90;;;;;;5063689;28;20036;-77
2022/11/08 09:06:45;;;;;;;7.15;3.20;;;9.90;99.90;;;;;;5074983;28;20028;-77
2022/11/08 09:09:11;;;;;;;9.93;3.13;;;10.10;99.90;;;;;;5074303;28;20080;-77
2022/11/08 09:11:36;;;;;;;7.40;2.67;;;10.20;99.90;;;;;;5057315;28;20029;-82
2022/11/08 09:14:02;;;;;;;6.63;2.92;;;10.40;99.90;;;;;;5071060;28;20021;-82
2022/11/08 09:16:28;;;;;;;6.40;2.80;;;10.50;99.90;;;;;;5061127;28;20032;-80
2022/11/08 09:18:53;;;;;;;3.95;2.22;;;10.60;99.90;;;;;;5055249;28;20086;-82
2022/11/08 09:21:19;;;;;;;5.15;1.90;;;10.70;99.90;;;;;;5070930;28;20056;-81
2022/11/08 09:23:44;;;;;;;8.30;1.90;;;10.80;99.90;;;;;;5058446;28;20029;-78
2022/11/08 09:26:11;;;;;;;2.55;1.50;;;10.90;99.90;;;;;;5068944;28;20024;-77
2022/11/08 09:28:37;;;;;;;2.67;1.38;;;10.90;99.90;;;;;;5063660;28;20040;-79
2022/11/08 09:31:08;;;;;;;4.40;1.45;;;11.00;99.90;;;;;;5060887;28;20025;-82
2022/11/08 09:33:34;;;;;;;3.92;1.50;;;11.00;99.90;;;;;;5072193;28;20500;-79
2022/11/08 09:36:01;;;;;;;5.60;1.77;;;11.00;99.90;;;;;;5075203;28;20032;-79
2022/11/08 09:38:28;;;;;;;4.07;1.60;;;10.90;99.90;;;;;;5074167;28;20033;-76
2022/11/08 09:40:59;;;;;;;5.07;2.10;;;10.90;99.90;;;;;;5075577;28;20028;-79
2022/11/08 09:43:45;;;;;;;2.92;1.52;;;10.90;99.90;;;;;;5074228;28;20056;-79
2022/11/08 09:46:23;;;;;;;4.55;1.60;;;10.90;99.90;;;;;;5075689;28;20031;-79
2022/11/08 09:48:50;;;;;;;4.57;1.95;;;10.90;99.90;;;;;;5073402;28;20552;-79
2022/11/08 09:51:19;;;;;;;3.45;1.80;;;10.90;99.90;;;;;;5075279;28;20059;-79
2022/11/08 09:53:52;;;;;;;3.92;1.90;;;10.80;99.90;;;;;;5073849;28;20058;-79
2022/11/08 09:56:23;;;;;;;5.55;2.28;;;10.80;99.90;;;;;;5074299;28;20112;-79
2022/11/08 09:58:53;;;;;;;3.53;1.70;;;10.90;99.90;;;;;;5058915;28;20037;-78
2022/11/08 10:01:20;;;;;;;2.35;1.77;;;10.80;99.90;;;;;;5053614;28;20033;-77
2022/11/08 10:03:51;;;;;;;5.30;2.42;;;10.80;99.90;;;;;;5052977;28;20128;-78
2022/11/08 10:06:34;;;;;;;3.03;2.13;;;10.90;99.90;;;;;;5062445;28;20016;-79
2022/11/08 10:09:28;;;;;;;5.25;2.30;;;10.90;99.90;;;;;;5060030;28;20060;-79
2022/11/08 10:12:18;;;;;;;3.97;2.15;;;10.90;99.90;;;;;;5055247;28;20052;-77
2022/11/08 10:15:05;;;;;;;4.65;2.00;;;11.00;99.90;;;;;;5061646;28;20024;-78
2022/11/08 10:17:53;;;;;;;3.05;2.08;;;10.90;99.90;;;;;;5069155;28;20047;-79
2022/11/08 10:20:34;;;;;;;6.15;2.50;;;10.90;99.90;;;;;;5061021;28;20063;-78
2022/11/08 10:23:20;;;;;;;5.80;2.60;;;10.90;99.90;;;;;;5060156;28;20107;-79
2022/11/08 10:25:52;;;;;;;4.57;2.25;;;10.90;99.90;;;;;;5069339;28;20075;-78
2022/11/08 10:28:23;;;;;;;3.47;2.28;;;10.90;99.90;;;;;;5060342;28;20048;-78
2022/11/08 10:30:52;;;;;;;4.28;2.40;;;10.90;99.90;;;;;;5065927;28;20033;-78
2022/11/08 10:33:45;;;;;;;9.10;2.30;;;11.00;99.90;;;;;;5058462;28;20419;-78
2022/11/08 10:36:22;;;;;;;4.90;2.20;;;11.00;99.90;;;;;;5047085;28;20024;-79
2022/11/08 10:38:58;;;;;;;4.45;2.30;;;11.00;99.90;;;;;;5061924;28;20177;-79
2022/11/08 10:41:24;;;;;;;6.07;2.13;;;11.00;99.90;;;;;;5070565;28;20367;-78
2022/11/08 10:44:02;;;;;;;4.50;2.28;;;11.00;99.90;;;;;;5056266;28;20115;-78
2022/11/08 10:46:39;;;;;;;4.72;2.15;;;11.20;99.90;;;;;;5065228;28;20032;-79
2022/11/08 10:49:11;;;;;;;4.93;2.08;;;11.30;99.90;;;;;;5066239;28;20501;-79
2022/11/08 10:51:37;;;;;;;5.03;2.15;;;11.30;99.90;;;;;;5055501;28;20413;-78
2022/11/08 10:54:02;;;;;;;4.53;2.03;;;11.40;99.90;;;;;;5068493;28;20025;-79
2022/11/08 10:56:28;;;;;;;3.00;2.00;;;11.50;99.90;;;;;;5061497;28;20029;-79
2022/11/08 10:58:53;;;;;;;3.83;1.85;;;11.60;99.90;;;;;;5057326;28;20036;-79
2022/11/08 11:01:26;;;;;;;6.13;2.13;;;11.70;99.90;;;;;;5068797;28;20386;-78
2022/11/08 11:03:52;;;;;;;5.43;2.20;;;11.70;99.90;;;;;;5040905;28;20043;-79
2022/11/08 11:06:26;;;;;;;4.53;2.08;;;11.70;99.90;;;;;;5064826;28;20029;-79
2022/11/08 11:08:57;;;;;;;3.17;2.33;;;11.80;99.90;;;;;;5064248;28;20067;-79
2022/11/08 11:11:32;;;;;;;6.53;2.28;;;11.90;99.90;;;;;;5055685;28;20032;-78
2022/11/08 11:14:10;;;;;;;4.72;1.80;;;11.90;99.90;;;;;;5068551;28;20021;-78
2022/11/08 11:16:37;;;;;;;4.88;2.00;;;12.10;99.90;;;;;;5063087;28;20017;-78
2022/11/08 11:19:05;;;;;;;4.90;2.25;;;12.20;99.90;;;;;;5058476;28;20075;-79
2022/11/08 11:21:38;;;;;;;3.30;1.75;;;12.30;99.90;;;;;;5069307;28;20024;-78
2022/11/08 11:24:15;;;;;;;4.93;1.65;;;12.40;99.90;;;;;;5057966;28;20035;-79
2022/11/08 11:26:45;;;;;;;6.60;1.95;;;12.60;99.90;;;;;;5061714;28;20493;-78
2022/11/08 11:29:20;;;;;;;6.10;1.90;;;12.80;99.90;;;;;;5057969;28;20056;-78
2022/11/08 11:31:49;;;;;;;4.22;1.92;;;12.90;99.90;;;;;;5069341;28;20028;-78
2022/11/08 11:34:17;;;;;;;2.92;1.20;;;13.00;99.90;;;;;;5060613;28;20032;-79
2022/11/08 11:36:55;;;;;;;3.17;1.50;;;13.10;99.90;;;;;;5060298;28;20048;-78
2022/11/08 11:39:33;;;;;;;2.47;1.30;;;13.20;99.90;;;;;;5069655;28;20032;-79
2022/11/08 11:42:20;;;;;;;3.65;1.23;;;13.30;99.90;;;;;;5042160;28;20020;-78
2022/11/08 11:45:01;;;;;;;1.95;1.40;;;13.50;99.90;;;;;;5060038;28;20466;-79
2022/11/08 11:47:36;;;;;;;1.60;1.00;;;13.60;99.90;;;;;;5065892;28;20033;-78
2022/11/08 11:50:27;;;;;;;1.85;1.15;;;13.80;99.90;;;;;;5056807;28;20048;-78
2022/11/08 11:52:54;;;;;;;4.22;1.52;;;14.20;99.90;;;;;;5059912;28;20079;-79
2022/11/08 11:55:41;;;;;;;1.83;1.20;;;14.30;99.90;;;;;;5068156;28;20470;-78
2022/11/08 11:58:28;;;;;;;1.70;1.00;;;14.40;99.90;;;;;;5043573;28;20020;-78
2022/11/08 12:01:21;;;;;;;2.42;1.10;;;14.60;99.90;;;;;;5064482;28;20016;-79
2022/11/08 12:04:29;;;;;;;3.20;1.00;;;14.90;99.90;;;;;;5068836;28;20045;-78
2022/11/08 12:07:06;;;;;;;1.63;0.90;;;15.10;99.90;;;;;;5063699;28;20024;-79
2022/11/08 12:09:57;;;;;;;3.25;1.10;;;15.10;99.90;;;;;;5053803;28;20045;-77
2022/11/08 12:12:37;;;;;;;3.55;1.05;;;15.10;99.90;;;;;;5063928;28;20131;-78
2022/11/08 12:15:22;;;;;;;2.97;0.90;;;15.10;99.90;;;;;;5065547;28;20024;-78
2022/11/08 12:17:48;;;;;;;2.35;1.10;;;15.00;99.90;;;;;;5038336;28;20058;-78
2022/11/08 12:20:45;;;;;;;3.10;1.08;;;15.00;99.90;;;;;;5063797;28;20029;-79
2022/11/08 12:23:13;;;;;;;2.80;1.17;;;14.90;99.90;;;;;;5066783;28;20036;-78
2022/11/08 12:26:05;;;;;;;5.57;1.20;;;14.90;99.90;;;;;;5054321;28;20063;-78
2022/11/08 12:28:59;;;;;;;3.17;1.10;;;14.90;99.90;;;;;;5043408;28;20037;-79
2022/11/08 12:31:45;;;;;;;2.50;1.20;;;14.90;99.90;;;;;;5067883;28;20037;-78
2022/11/08 12:34:53;;;;;;;2.85;0.93;;;14.90;99.90;;;;;;5065534;28;20095;-79
2022/11/08 12:37:21;;;;;;;2.35;1.00;;;15.00;99.90;;;;;;5061864;28;20066;-78
2022/11/08 12:39:57;;;;;;;2.97;1.20;;;15.10;99.90;;;;;;5053889;28;20021;-78
2022/11/08 12:42:33;;;;;;;5.78;0.88;;;15.10;99.90;;;;;;5062955;28;20366;-78
2022/11/08 12:45:16;;;;;;;2.65;0.90;;;15.10;99.90;;;;;;5064257;28;20030;-79
2022/11/08 12:48:05;;;;;;;2.83;1.05;;;15.10;99.90;;;;;;5054969;28;20025;-79
2022/11/08 12:50:59;;;;;;;4.82;1.23;;;15.10;99.90;;;;;;5051242;28;20490;-78
2022/11/08 12:53:34;;;;;;;1.80;1.10;;;15.00;99.90;;;;;;5061050;28;20029;-79
2022/11/08 12:56:02;;;;;;;2.22;0.80;;;15.10;99.90;;;;;;5066797;28;20030;-79
2022/11/08 12:58:44;;;;;;;2.65;1.00;;;15.20;99.90;;;;;;5057766;28;20370;-78
2022/11/08 13:01:15;;;;;;;2.30;1.05;;;15.20;99.90;;;;;;5065897;28;20393;-79
2022/11/08 13:03:48;;;;;;;2.67;1.00;;;15.20;99.90;;;;;;5067833;28;20029;-78
2022/11/08 13:06:23;;;;;;;2.42;0.90;;;15.20;99.90;;;;;;5050994;28;20036;-78
2022/11/08 13:08:55;;;;;;;3.00;1.05;;;15.30;99.90;;;;;;5051052;28;20041;-78
2022/11/08 13:11:31;;;;;;;3.83;1.10;;;15.30;99.90;;;;;;5069013;28;20474;-78
2022/11/08 13:13:59;;;;;;;3.03;1.15;;;15.20;99.90;;;;;;5044133;28;20025;-78
2022/11/08 13:16:27;;;;;;;1.55;1.15;;;15.20;99.90;;;;;;5067435;28;20013;-79
2022/11/08 13:18:55;;;;;;;5.28;1.20;;;15.20;99.90;;;;;;5067866;28;20032;-78
2022/11/08 13:21:27;;;;;;;3.08;1.15;;;15.10;99.90;;;;;;5059376;28;20025;-78
2022/11/08 13:24:13;;;;;;;4.75;1.25;;;15.10;99.90;;;;;;5043887;28;20024;-78
2022/11/08 13:26:42;;;;;;;4.10;1.25;;;15.10;99.90;;;;;;5056247;28;20071;-78